sensor_id;sensor_type;location;lat;lon;timestamp;pressure;altitude;pressure_sealevel;temperature
68012;BMP180;54794;48.348;7.878;2022-08-19T00:02:08;98726.00;;;25.40
68012;BMP180;54794;48.348;7.878;2022-08-19T00:04:35;98722.00;;;25.40
68012;BMP180;54794;48.348;7.878;2022-08-19T00:07:05;98733.00;;;25.40
68012;BMP180;54794;48.348;7.878;2022-08-19T00:09:32;98729.00;;;25.40
68012;BMP180;54794;48.348;7.878;2022-08-19T00:11:59;98724.00;;;25.40
68012;BMP180;54794;48.348;7.878;2022-08-19T00:14:27;98711.00;;;25.30
68012;BMP180;54794;48.348;7.878;2022-08-19T00:16:59;98721.00;;;25.30
68012;BMP180;54794;48.348;7.878;2022-08-19T00:19:26;98715.00;;;25.30
68012;BMP180;54794;48.348;7.878;2022-08-19T00:21:53;98711.00;;;25.30
68012;BMP180;54794;48.348;7.878;2022-08-19T00:24:22;98717.00;;;25.30
68012;BMP180;54794;48.348;7.878;2022-08-19T00:26:49;98726.00;;;25.30
68012;BMP180;54794;48.348;7.878;2022-08-19T00:29:20;98722.00;;;25.30
68012;BMP180;54794;48.348;7.878;2022-08-19T00:31:47;98714.00;;;25.20
68012;BMP180;54794;48.348;7.878;2022-08-19T00:34:16;98713.00;;;25.30
68012;BMP180;54794;48.348;7.878;2022-08-19T00:36:44;98724.00;;;25.20
68012;BMP180;54794;48.348;7.878;2022-08-19T00:39:13;98726.00;;;25.20
68012;BMP180;54794;48.348;7.878;2022-08-19T00:41:41;98717.00;;;25.20
68012;BMP180;54794;48.348;7.878;2022-08-19T00:44:14;98709.00;;;25.20
68012;BMP180;54794;48.348;7.878;2022-08-19T00:46:45;98705.00;;;25.20
68012;BMP180;54794;48.348;7.878;2022-08-19T00:52:11;98719.00;;;25.20
68012;BMP180;54794;48.348;7.878;2022-08-19T00:54:41;98721.00;;;25.20
68012;BMP180;54794;48.348;7.878;2022-08-19T00:57:15;98706.00;;;25.20
68012;BMP180;54794;48.348;7.878;2022-08-19T00:59:47;98713.00;;;25.20
68012;BMP180;54794;48.348;7.878;2022-08-19T01:02:30;98714.00;;;25.20
68012;BMP180;54794;48.348;7.878;2022-08-19T01:04:59;98719.00;;;25.20
68012;BMP180;54794;48.348;7.878;2022-08-19T01:07:27;98709.00;;;25.20
68012;BMP180;54794;48.348;7.878;2022-08-19T01:10:03;98723.00;;;25.20
68012;BMP180;54794;48.348;7.878;2022-08-19T01:12:30;98707.00;;;25.20
68012;BMP180;54794;48.348;7.878;2022-08-19T01:14:58;98715.00;;;25.20
68012;BMP180;54794;48.348;7.878;2022-08-19T01:17:27;98703.00;;;25.20
68012;BMP180;54794;48.348;7.878;2022-08-19T01:19:54;98711.00;;;25.10
68012;BMP180;54794;48.348;7.878;2022-08-19T01:24:58;98702.00;;;25.10
68012;BMP180;54794;48.348;7.878;2022-08-19T01:27:26;98703.00;;;25.10
68012;BMP180;54794;48.348;7.878;2022-08-19T01:29:57;98690.00;;;25.10
68012;BMP180;54794;48.348;7.878;2022-08-19T01:32:24;98700.00;;;25.10
68012;BMP180;54794;48.348;7.878;2022-08-19T01:35:00;98708.00;;;25.10
68012;BMP180;54794;48.348;7.878;2022-08-19T01:37:29;98687.00;;;25.10
68012;BMP180;54794;48.348;7.878;2022-08-19T01:39:57;98688.00;;;25.10
68012;BMP180;54794;48.348;7.878;2022-08-19T01:42:24;98695.00;;;25.10
68012;BMP180;54794;48.348;7.878;2022-08-19T01:44:56;98693.00;;;25.10
68012;BMP180;54794;48.348;7.878;2022-08-19T01:47:23;98694.00;;;25.10
68012;BMP180;54794;48.348;7.878;2022-08-19T01:49:50;98702.00;;;25.10
68012;BMP180;54794;48.348;7.878;2022-08-19T01:52:17;98687.00;;;25.10
68012;BMP180;54794;48.348;7.878;2022-08-19T01:54:44;98688.00;;;25.10
68012;BMP180;54794;48.348;7.878;2022-08-19T01:57:13;98693.00;;;25.10
68012;BMP180;54794;48.348;7.878;2022-08-19T01:59:43;98685.00;;;25.10
68012;BMP180;54794;48.348;7.878;2022-08-19T02:02:11;98694.00;;;25.10
68012;BMP180;54794;48.348;7.878;2022-08-19T02:04:38;98686.00;;;25.10
68012;BMP180;54794;48.348;7.878;2022-08-19T02:07:06;98682.00;;;25.00
68012;BMP180;54794;48.348;7.878;2022-08-19T02:09:35;98659.00;;;25.00
68012;BMP180;54794;48.348;7.878;2022-08-19T02:12:04;98664.00;;;25.00
68012;BMP180;54794;48.348;7.878;2022-08-19T02:14:33;98659.00;;;25.00
68012;BMP180;54794;48.348;7.878;2022-08-19T02:17:00;98669.00;;;25.00
68012;BMP180;54794;48.348;7.878;2022-08-19T02:19:27;98680.00;;;25.00
68012;BMP180;54794;48.348;7.878;2022-08-19T02:21:54;98686.00;;;25.00
68012;BMP180;54794;48.348;7.878;2022-08-19T02:24:21;98681.00;;;24.90
68012;BMP180;54794;48.348;7.878;2022-08-19T02:26:48;98674.00;;;24.90
68012;BMP180;54794;48.348;7.878;2022-08-19T02:29:15;98687.00;;;24.90
68012;BMP180;54794;48.348;7.878;2022-08-19T02:31:43;98690.00;;;24.90
68012;BMP180;54794;48.348;7.878;2022-08-19T02:34:10;98689.00;;;24.90
68012;BMP180;54794;48.348;7.878;2022-08-19T02:36:37;98693.00;;;24.90
68012;BMP180;54794;48.348;7.878;2022-08-19T02:39:09;98696.00;;;24.90
68012;BMP180;54794;48.348;7.878;2022-08-19T02:41:36;98690.00;;;24.90
68012;BMP180;54794;48.348;7.878;2022-08-19T02:44:04;98683.00;;;24.90
68012;BMP180;54794;48.348;7.878;2022-08-19T02:46:51;98686.00;;;24.90
68012;BMP180;54794;48.348;7.878;2022-08-19T02:49:18;98682.00;;;24.90
68012;BMP180;54794;48.348;7.878;2022-08-19T02:51:46;98680.00;;;24.90
68012;BMP180;54794;48.348;7.878;2022-08-19T02:54:15;98671.00;;;24.90
68012;BMP180;54794;48.348;7.878;2022-08-19T02:56:43;98673.00;;;24.90
68012;BMP180;54794;48.348;7.878;2022-08-19T02:59:11;98690.00;;;24.80
68012;BMP180;54794;48.348;7.878;2022-08-19T03:01:40;98691.00;;;24.80
68012;BMP180;54794;48.348;7.878;2022-08-19T03:04:13;98697.00;;;24.80
68012;BMP180;54794;48.348;7.878;2022-08-19T03:06:45;98694.00;;;24.80
68012;BMP180;54794;48.348;7.878;2022-08-19T03:09:13;98693.00;;;24.80
68012;BMP180;54794;48.348;7.878;2022-08-19T03:11:41;98680.00;;;24.80
68012;BMP180;54794;48.348;7.878;2022-08-19T03:14:09;98693.00;;;24.80
68012;BMP180;54794;48.348;7.878;2022-08-19T03:16:51;98696.00;;;24.80
68012;BMP180;54794;48.348;7.878;2022-08-19T03:19:20;98687.00;;;24.70
68012;BMP180;54794;48.348;7.878;2022-08-19T03:21:48;98695.00;;;24.80
68012;BMP180;54794;48.348;7.878;2022-08-19T03:24:16;98702.00;;;24.60
68012;BMP180;54794;48.348;7.878;2022-08-19T03:26:48;98713.00;;;24.70
68012;BMP180;54794;48.348;7.878;2022-08-19T03:29:17;98712.00;;;24.70
68012;BMP180;54794;48.348;7.878;2022-08-19T03:31:56;98719.00;;;24.70
68012;BMP180;54794;48.348;7.878;2022-08-19T03:34:28;98716.00;;;24.70
68012;BMP180;54794;48.348;7.878;2022-08-19T03:36:59;98721.00;;;24.70
68012;BMP180;54794;48.348;7.878;2022-08-19T03:39:29;98725.00;;;24.70
68012;BMP180;54794;48.348;7.878;2022-08-19T03:41:56;98736.00;;;24.70
68012;BMP180;54794;48.348;7.878;2022-08-19T03:44:44;98734.00;;;24.70
68012;BMP180;54794;48.348;7.878;2022-08-19T03:47:12;98731.00;;;24.70
68012;BMP180;54794;48.348;7.878;2022-08-19T03:49:43;98729.00;;;24.70
68012;BMP180;54794;48.348;7.878;2022-08-19T03:52:11;98713.00;;;24.70
68012;BMP180;54794;48.348;7.878;2022-08-19T03:54:38;98712.00;;;24.70
68012;BMP180;54794;48.348;7.878;2022-08-19T03:57:06;98706.00;;;24.70
68012;BMP180;54794;48.348;7.878;2022-08-19T03:59:35;98714.00;;;24.70
68012;BMP180;54794;48.348;7.878;2022-08-19T04:02:09;98725.00;;;24.70
68012;BMP180;54794;48.348;7.878;2022-08-19T04:04:40;98737.00;;;24.70
68012;BMP180;54794;48.348;7.878;2022-08-19T04:07:08;98741.00;;;24.70
68012;BMP180;54794;48.348;7.878;2022-08-19T04:09:36;98739.00;;;24.60
68012;BMP180;54794;48.348;7.878;2022-08-19T04:12:04;98742.00;;;24.60
68012;BMP180;54794;48.348;7.878;2022-08-19T04:14:33;98734.00;;;24.60
68012;BMP180;54794;48.348;7.878;2022-08-19T04:17:02;98744.00;;;24.60
68012;BMP180;54794;48.348;7.878;2022-08-19T04:19:34;98727.00;;;24.60
68012;BMP180;54794;48.348;7.878;2022-08-19T04:22:02;98739.00;;;24.60
68012;BMP180;54794;48.348;7.878;2022-08-19T04:24:30;98746.00;;;24.60
68012;BMP180;54794;48.348;7.878;2022-08-19T04:27:00;98752.00;;;24.60
68012;BMP180;54794;48.348;7.878;2022-08-19T04:29:28;98741.00;;;24.60
68012;BMP180;54794;48.348;7.878;2022-08-19T04:31:57;98757.00;;;24.60
68012;BMP180;54794;48.348;7.878;2022-08-19T04:34:27;98745.00;;;24.60
68012;BMP180;54794;48.348;7.878;2022-08-19T04:36:58;98750.00;;;24.60
68012;BMP180;54794;48.348;7.878;2022-08-19T04:39:30;98757.00;;;24.60
68012;BMP180;54794;48.348;7.878;2022-08-19T04:42:17;98737.00;;;24.60
68012;BMP180;54794;48.348;7.878;2022-08-19T04:45:09;98742.00;;;24.60
68012;BMP180;54794;48.348;7.878;2022-08-19T04:47:42;98733.00;;;24.60
68012;BMP180;54794;48.348;7.878;2022-08-19T04:50:26;98736.00;;;24.60
68012;BMP180;54794;48.348;7.878;2022-08-19T04:52:53;98739.00;;;24.60
68012;BMP180;54794;48.348;7.878;2022-08-19T04:55:22;98745.00;;;24.60
68012;BMP180;54794;48.348;7.878;2022-08-19T04:57:52;98738.00;;;24.60
68012;BMP180;54794;48.348;7.878;2022-08-19T05:00:19;98748.00;;;24.60
68012;BMP180;54794;48.348;7.878;2022-08-19T05:02:46;98746.00;;;24.60
68012;BMP180;54794;48.348;7.878;2022-08-19T05:05:16;98749.00;;;24.60
68012;BMP180;54794;48.348;7.878;2022-08-19T05:07:43;98766.00;;;24.60
68012;BMP180;54794;48.348;7.878;2022-08-19T05:10:10;98761.00;;;24.60
68012;BMP180;54794;48.348;7.878;2022-08-19T05:12:37;98771.00;;;24.60
68012;BMP180;54794;48.348;7.878;2022-08-19T05:15:06;98754.00;;;24.60
68012;BMP180;54794;48.348;7.878;2022-08-19T05:17:35;98771.00;;;24.60
68012;BMP180;54794;48.348;7.878;2022-08-19T05:20:06;98771.00;;;24.60
68012;BMP180;54794;48.348;7.878;2022-08-19T05:22:52;98781.00;;;24.60
68012;BMP180;54794;48.348;7.878;2022-08-19T05:25:21;98787.00;;;24.60
68012;BMP180;54794;48.348;7.878;2022-08-19T05:27:48;98798.00;;;24.70
68012;BMP180;54794;48.348;7.878;2022-08-19T05:30:17;98798.00;;;24.70
68012;BMP180;54794;48.348;7.878;2022-08-19T05:32:59;98795.00;;;24.70
68012;BMP180;54794;48.348;7.878;2022-08-19T05:35:26;98801.00;;;24.70
68012;BMP180;54794;48.348;7.878;2022-08-19T05:38:00;98813.00;;;24.70
68012;BMP180;54794;48.348;7.878;2022-08-19T05:40:27;98813.00;;;24.70
68012;BMP180;54794;48.348;7.878;2022-08-19T05:42:55;98803.00;;;24.70
68012;BMP180;54794;48.348;7.878;2022-08-19T05:45:22;98805.00;;;24.70
68012;BMP180;54794;48.348;7.878;2022-08-19T05:47:49;98794.00;;;24.80
68012;BMP180;54794;48.348;7.878;2022-08-19T05:50:16;98791.00;;;24.80
68012;BMP180;54794;48.348;7.878;2022-08-19T05:52:44;98788.00;;;24.80
68012;BMP180;54794;48.348;7.878;2022-08-19T05:55:16;98783.00;;;24.80
68012;BMP180;54794;48.348;7.878;2022-08-19T05:57:43;98793.00;;;24.80
68012;BMP180;54794;48.348;7.878;2022-08-19T06:00:11;98786.00;;;24.80
68012;BMP180;54794;48.348;7.878;2022-08-19T06:02:39;98798.00;;;24.80
68012;BMP180;54794;48.348;7.878;2022-08-19T06:05:08;98801.00;;;24.80
68012;BMP180;54794;48.348;7.878;2022-08-19T06:07:37;98792.00;;;24.80
68012;BMP180;54794;48.348;7.878;2022-08-19T06:10:07;98811.00;;;24.80
68012;BMP180;54794;48.348;7.878;2022-08-19T06:12:36;98823.00;;;24.80
68012;BMP180;54794;48.348;7.878;2022-08-19T06:15:11;98824.00;;;24.90
68012;BMP180;54794;48.348;7.878;2022-08-19T06:17:40;98821.00;;;24.90
68012;BMP180;54794;48.348;7.878;2022-08-19T06:20:12;98833.00;;;24.90
68012;BMP180;54794;48.348;7.878;2022-08-19T06:22:49;98835.00;;;24.90
68012;BMP180;54794;48.348;7.878;2022-08-19T06:25:19;98835.00;;;24.90
68012;BMP180;54794;48.348;7.878;2022-08-19T06:27:46;98838.00;;;25.00
68012;BMP180;54794;48.348;7.878;2022-08-19T06:30:33;98840.00;;;25.00
68012;BMP180;54794;48.348;7.878;2022-08-19T06:33:00;98849.00;;;25.00
68012;BMP180;54794;48.348;7.878;2022-08-19T06:35:27;98830.00;;;25.00
68012;BMP180;54794;48.348;7.878;2022-08-19T06:37:55;98818.00;;;25.00
68012;BMP180;54794;48.348;7.878;2022-08-19T06:40:23;98831.00;;;25.00
68012;BMP180;54794;48.348;7.878;2022-08-19T06:42:50;98833.00;;;25.00
68012;BMP180;54794;48.348;7.878;2022-08-19T06:45:22;98841.00;;;25.10
68012;BMP180;54794;48.348;7.878;2022-08-19T06:47:50;98847.00;;;25.10
68012;BMP180;54794;48.348;7.878;2022-08-19T06:50:21;98840.00;;;25.10
68012;BMP180;54794;48.348;7.878;2022-08-19T06:52:51;98832.00;;;25.10
68012;BMP180;54794;48.348;7.878;2022-08-19T06:55:19;98845.00;;;25.10
68012;BMP180;54794;48.348;7.878;2022-08-19T06:57:46;98855.00;;;25.00
68012;BMP180;54794;48.348;7.878;2022-08-19T07:00:15;98852.00;;;25.10
68012;BMP180;54794;48.348;7.878;2022-08-19T07:02:43;98857.00;;;25.10
68012;BMP180;54794;48.348;7.878;2022-08-19T07:05:18;98851.00;;;25.10
68012;BMP180;54794;48.348;7.878;2022-08-19T07:07:45;98852.00;;;25.10
68012;BMP180;54794;48.348;7.878;2022-08-19T07:10:13;98857.00;;;25.10
68012;BMP180;54794;48.348;7.878;2022-08-19T07:12:40;98853.00;;;25.10
68012;BMP180;54794;48.348;7.878;2022-08-19T07:15:08;98854.00;;;25.10
68012;BMP180;54794;48.348;7.878;2022-08-19T07:17:38;98852.00;;;25.10
68012;BMP180;54794;48.348;7.878;2022-08-19T07:20:08;98828.00;;;25.10
68012;BMP180;54794;48.348;7.878;2022-08-19T07:22:40;98848.00;;;25.20
68012;BMP180;54794;48.348;7.878;2022-08-19T07:25:09;98847.00;;;25.20
68012;BMP180;54794;48.348;7.878;2022-08-19T07:27:37;98850.00;;;25.20
68012;BMP180;54794;48.348;7.878;2022-08-19T07:30:08;98846.00;;;25.20
68012;BMP180;54794;48.348;7.878;2022-08-19T07:32:39;98838.00;;;25.20
68012;BMP180;54794;48.348;7.878;2022-08-19T07:35:08;98847.00;;;25.20
68012;BMP180;54794;48.348;7.878;2022-08-19T07:37:37;98837.00;;;25.20
68012;BMP180;54794;48.348;7.878;2022-08-19T07:40:07;98843.00;;;25.30
68012;BMP180;54794;48.348;7.878;2022-08-19T07:42:36;98830.00;;;25.30
68012;BMP180;54794;48.348;7.878;2022-08-19T07:45:05;98843.00;;;25.30
68012;BMP180;54794;48.348;7.878;2022-08-19T07:47:33;98845.00;;;25.30
68012;BMP180;54794;48.348;7.878;2022-08-19T07:50:17;98840.00;;;25.40
68012;BMP180;54794;48.348;7.878;2022-08-19T07:52:46;98820.00;;;25.40
68012;BMP180;54794;48.348;7.878;2022-08-19T07:55:21;98838.00;;;25.40
68012;BMP180;54794;48.348;7.878;2022-08-19T07:58:08;98829.00;;;25.40
68012;BMP180;54794;48.348;7.878;2022-08-19T08:00:35;98836.00;;;25.40
68012;BMP180;54794;48.348;7.878;2022-08-19T08:03:03;98836.00;;;25.50
68012;BMP180;54794;48.348;7.878;2022-08-19T08:05:30;98835.00;;;25.50
68012;BMP180;54794;48.348;7.878;2022-08-19T08:08:20;98844.00;;;25.50
68012;BMP180;54794;48.348;7.878;2022-08-19T08:11:04;98842.00;;;25.50
68012;BMP180;54794;48.348;7.878;2022-08-19T08:13:34;98838.00;;;25.60
68012;BMP180;54794;48.348;7.878;2022-08-19T08:16:03;98853.00;;;25.60
68012;BMP180;54794;48.348;7.878;2022-08-19T08:18:35;98851.00;;;25.70
68012;BMP180;54794;48.348;7.878;2022-08-19T08:21:08;98850.00;;;25.70
68012;BMP180;54794;48.348;7.878;2022-08-19T08:23:35;98856.00;;;25.80
68012;BMP180;54794;48.348;7.878;2022-08-19T08:26:05;98858.00;;;25.80
68012;BMP180;54794;48.348;7.878;2022-08-19T08:28:32;98863.00;;;25.90
68012;BMP180;54794;48.348;7.878;2022-08-19T08:30:59;98869.00;;;25.90
68012;BMP180;54794;48.348;7.878;2022-08-19T08:33:28;98871.00;;;26.00
68012;BMP180;54794;48.348;7.878;2022-08-19T08:36:10;98880.00;;;26.00
68012;BMP180;54794;48.348;7.878;2022-08-19T08:38:39;98883.00;;;26.10
68012;BMP180;54794;48.348;7.878;2022-08-19T08:44:41;98888.00;;;26.20
68012;BMP180;54794;48.348;7.878;2022-08-19T08:47:18;98892.00;;;26.20
68012;BMP180;54794;48.348;7.878;2022-08-19T08:50:05;98898.00;;;26.30
68012;BMP180;54794;48.348;7.878;2022-08-19T08:52:39;98892.00;;;26.40
68012;BMP180;54794;48.348;7.878;2022-08-19T08:55:32;98885.00;;;26.40
68012;BMP180;54794;48.348;7.878;2022-08-19T08:58:14;98893.00;;;26.40
68012;BMP180;54794;48.348;7.878;2022-08-19T09:00:47;98907.00;;;26.50
68012;BMP180;54794;48.348;7.878;2022-08-19T09:03:26;98907.00;;;26.50
68012;BMP180;54794;48.348;7.878;2022-08-19T09:06:17;98910.00;;;26.50
68012;BMP180;54794;48.348;7.878;2022-08-19T09:14:56;98918.00;;;26.60
68012;BMP180;54794;48.348;7.878;2022-08-19T09:17:28;98918.00;;;26.70
68012;BMP180;54794;48.348;7.878;2022-08-19T09:20:21;98925.00;;;26.70
68012;BMP180;54794;48.348;7.878;2022-08-19T09:22:49;98903.00;;;26.80
68012;BMP180;54794;48.348;7.878;2022-08-19T09:25:20;98921.00;;;26.80
68012;BMP180;54794;48.348;7.878;2022-08-19T09:27:55;98918.00;;;26.90
68012;BMP180;54794;48.348;7.878;2022-08-19T09:30:41;98928.00;;;26.90
68012;BMP180;54794;48.348;7.878;2022-08-19T09:33:08;98931.00;;;26.90
68012;BMP180;54794;48.348;7.878;2022-08-19T09:35:35;98924.00;;;26.90
68012;BMP180;54794;48.348;7.878;2022-08-19T09:38:20;98916.00;;;26.90
68012;BMP180;54794;48.348;7.878;2022-08-19T09:40:47;98923.00;;;27.00
68012;BMP180;54794;48.348;7.878;2022-08-19T09:43:14;98913.00;;;27.00
68012;BMP180;54794;48.348;7.878;2022-08-19T09:46:00;98923.00;;;27.00
68012;BMP180;54794;48.348;7.878;2022-08-19T09:48:27;98928.00;;;27.00
68012;BMP180;54794;48.348;7.878;2022-08-19T09:50:53;98930.00;;;27.10
68012;BMP180;54794;48.348;7.878;2022-08-19T09:53:21;98920.00;;;27.10
68012;BMP180;54794;48.348;7.878;2022-08-19T09:55:50;98926.00;;;27.20
68012;BMP180;54794;48.348;7.878;2022-08-19T09:58:17;98927.00;;;27.20
68012;BMP180;54794;48.348;7.878;2022-08-19T10:00:50;98930.00;;;27.30
68012;BMP180;54794;48.348;7.878;2022-08-19T10:03:17;98934.00;;;27.40
68012;BMP180;54794;48.348;7.878;2022-08-19T10:05:44;98942.00;;;27.40
68012;BMP180;54794;48.348;7.878;2022-08-19T10:08:23;98933.00;;;27.40
68012;BMP180;54794;48.348;7.878;2022-08-19T10:10:54;98935.00;;;27.50
68012;BMP180;54794;48.348;7.878;2022-08-19T10:13:28;98933.00;;;27.60
68012;BMP180;54794;48.348;7.878;2022-08-19T10:16:09;98930.00;;;27.60
68012;BMP180;54794;48.348;7.878;2022-08-19T10:18:37;98911.00;;;27.70
68012;BMP180;54794;48.348;7.878;2022-08-19T10:21:37;98926.00;;;27.70
68012;BMP180;54794;48.348;7.878;2022-08-19T10:24:07;98924.00;;;27.80
68012;BMP180;54794;48.348;7.878;2022-08-19T10:26:39;98930.00;;;27.80
68012;BMP180;54794;48.348;7.878;2022-08-19T10:29:08;98921.00;;;27.80
68012;BMP180;54794;48.348;7.878;2022-08-19T10:31:36;98942.00;;;27.90
68012;BMP180;54794;48.348;7.878;2022-08-19T10:34:24;98925.00;;;27.90
68012;BMP180;54794;48.348;7.878;2022-08-19T10:36:54;98934.00;;;27.90
68012;BMP180;54794;48.348;7.878;2022-08-19T10:39:29;98939.00;;;28.00
68012;BMP180;54794;48.348;7.878;2022-08-19T10:42:07;98932.00;;;28.00
68012;BMP180;54794;48.348;7.878;2022-08-19T10:44:36;98932.00;;;28.00
68012;BMP180;54794;48.348;7.878;2022-08-19T10:47:04;98931.00;;;28.00
68012;BMP180;54794;48.348;7.878;2022-08-19T10:49:50;98925.00;;;28.00
68012;BMP180;54794;48.348;7.878;2022-08-19T10:52:43;98928.00;;;28.00
68012;BMP180;54794;48.348;7.878;2022-08-19T10:55:22;98921.00;;;28.00
68012;BMP180;54794;48.348;7.878;2022-08-19T10:58:18;98925.00;;;28.00
68012;BMP180;54794;48.348;7.878;2022-08-19T11:00:56;98918.00;;;28.00
68012;BMP180;54794;48.348;7.878;2022-08-19T11:03:26;98914.00;;;28.00
68012;BMP180;54794;48.348;7.878;2022-08-19T11:06:00;98915.00;;;28.00
68012;BMP180;54794;48.348;7.878;2022-08-19T11:08:27;98903.00;;;28.00
68012;BMP180;54794;48.348;7.878;2022-08-19T11:10:55;98919.00;;;28.00
68012;BMP180;54794;48.348;7.878;2022-08-19T11:13:24;98909.00;;;28.10
68012;BMP180;54794;48.348;7.878;2022-08-19T11:16:10;98917.00;;;28.10
68012;BMP180;54794;48.348;7.878;2022-08-19T11:18:43;98902.00;;;28.00
68012;BMP180;54794;48.348;7.878;2022-08-19T11:21:34;98914.00;;;28.10
68012;BMP180;54794;48.348;7.878;2022-08-19T11:24:12;98905.00;;;28.10
68012;BMP180;54794;48.348;7.878;2022-08-19T11:26:44;98914.00;;;28.10
68012;BMP180;54794;48.348;7.878;2022-08-19T11:29:13;98924.00;;;28.20
68012;BMP180;54794;48.348;7.878;2022-08-19T11:31:44;98922.00;;;28.20
68012;BMP180;54794;48.348;7.878;2022-08-19T11:34:18;98926.00;;;28.20
68012;BMP180;54794;48.348;7.878;2022-08-19T11:36:47;98924.00;;;28.20
68012;BMP180;54794;48.348;7.878;2022-08-19T11:39:19;98930.00;;;28.20
68012;BMP180;54794;48.348;7.878;2022-08-19T11:41:46;98911.00;;;28.20
68012;BMP180;54794;48.348;7.878;2022-08-19T11:44:14;98916.00;;;28.10
68012;BMP180;54794;48.348;7.878;2022-08-19T11:46:44;98916.00;;;28.10
68012;BMP180;54794;48.348;7.878;2022-08-19T11:49:19;98909.00;;;28.20
68012;BMP180;54794;48.348;7.878;2022-08-19T11:51:48;98916.00;;;28.10
68012;BMP180;54794;48.348;7.878;2022-08-19T11:54:17;98906.00;;;28.20
68012;BMP180;54794;48.348;7.878;2022-08-19T11:56:45;98915.00;;;28.20
68012;BMP180;54794;48.348;7.878;2022-08-19T11:59:13;98911.00;;;28.20
68012;BMP180;54794;48.348;7.878;2022-08-19T12:01:41;98913.00;;;28.20
68012;BMP180;54794;48.348;7.878;2022-08-19T12:04:10;98908.00;;;28.20
68012;BMP180;54794;48.348;7.878;2022-08-19T12:06:40;98901.00;;;28.20
68012;BMP180;54794;48.348;7.878;2022-08-19T12:09:10;98907.00;;;28.20
68012;BMP180;54794;48.348;7.878;2022-08-19T12:11:38;98888.00;;;28.20
68012;BMP180;54794;48.348;7.878;2022-08-19T12:14:10;98906.00;;;28.30
68012;BMP180;54794;48.348;7.878;2022-08-19T12:16:40;98904.00;;;28.30
68012;BMP180;54794;48.348;7.878;2022-08-19T12:19:16;98899.00;;;28.40
68012;BMP180;54794;48.348;7.878;2022-08-19T12:21:49;98896.00;;;28.50
68012;BMP180;54794;48.348;7.878;2022-08-19T12:24:16;98893.00;;;28.70
68012;BMP180;54794;48.348;7.878;2022-08-19T12:26:49;98887.00;;;28.90
68012;BMP180;54794;48.348;7.878;2022-08-19T12:29:20;98899.00;;;29.10
68012;BMP180;54794;48.348;7.878;2022-08-19T12:31:50;98885.00;;;29.40
68012;BMP180;54794;48.348;7.878;2022-08-19T12:34:17;98898.00;;;29.60
68012;BMP180;54794;48.348;7.878;2022-08-19T12:36:46;98888.00;;;29.80
68012;BMP180;54794;48.348;7.878;2022-08-19T12:39:16;98892.00;;;30.00
68012;BMP180;54794;48.348;7.878;2022-08-19T12:41:43;98891.00;;;30.20
68012;BMP180;54794;48.348;7.878;2022-08-19T12:44:22;98894.00;;;30.30
68012;BMP180;54794;48.348;7.878;2022-08-19T12:46:58;98895.00;;;30.50
68012;BMP180;54794;48.348;7.878;2022-08-19T12:49:28;98891.00;;;30.60
68012;BMP180;54794;48.348;7.878;2022-08-19T12:52:16;98879.00;;;30.70
68012;BMP180;54794;48.348;7.878;2022-08-19T12:54:50;98896.00;;;30.90
68012;BMP180;54794;48.348;7.878;2022-08-19T12:57:25;98886.00;;;31.00
68012;BMP180;54794;48.348;7.878;2022-08-19T13:00:12;98895.00;;;31.20
68012;BMP180;54794;48.348;7.878;2022-08-19T13:02:44;98899.00;;;31.30
68012;BMP180;54794;48.348;7.878;2022-08-19T13:05:25;98883.00;;;31.50
68012;BMP180;54794;48.348;7.878;2022-08-19T13:07:55;98898.00;;;31.70
68012;BMP180;54794;48.348;7.878;2022-08-19T13:10:29;98874.00;;;31.80
68012;BMP180;54794;48.348;7.878;2022-08-19T13:12:58;98894.00;;;32.00
68012;BMP180;54794;48.348;7.878;2022-08-19T13:15:26;98869.00;;;32.00
68012;BMP180;54794;48.348;7.878;2022-08-19T13:17:55;98871.00;;;32.10
68012;BMP180;54794;48.348;7.878;2022-08-19T13:20:23;98883.00;;;32.10
68012;BMP180;54794;48.348;7.878;2022-08-19T13:22:51;98876.00;;;32.20
68012;BMP180;54794;48.348;7.878;2022-08-19T13:25:19;98883.00;;;32.10
68012;BMP180;54794;48.348;7.878;2022-08-19T13:27:48;98890.00;;;32.00
68012;BMP180;54794;48.348;7.878;2022-08-19T13:30:18;98882.00;;;31.90
68012;BMP180;54794;48.348;7.878;2022-08-19T13:33:04;98881.00;;;31.80
68012;BMP180;54794;48.348;7.878;2022-08-19T13:36:01;98873.00;;;31.60
68012;BMP180;54794;48.348;7.878;2022-08-19T13:38:28;98870.00;;;31.60
68012;BMP180;54794;48.348;7.878;2022-08-19T13:41:05;98847.00;;;31.50
68012;BMP180;54794;48.348;7.878;2022-08-19T13:43:36;98864.00;;;31.50
68012;BMP180;54794;48.348;7.878;2022-08-19T13:46:10;98865.00;;;31.50
68012;BMP180;54794;48.348;7.878;2022-08-19T13:48:41;98847.00;;;31.50
68012;BMP180;54794;48.348;7.878;2022-08-19T13:51:08;98826.00;;;31.60
68012;BMP180;54794;48.348;7.878;2022-08-19T13:53:39;98858.00;;;31.70
68012;BMP180;54794;48.348;7.878;2022-08-19T13:56:09;98851.00;;;31.90
68012;BMP180;54794;48.348;7.878;2022-08-19T13:58:38;98860.00;;;32.00
68012;BMP180;54794;48.348;7.878;2022-08-19T14:01:06;98858.00;;;32.00
68012;BMP180;54794;48.348;7.878;2022-08-19T14:03:34;98847.00;;;32.00
68012;BMP180;54794;48.348;7.878;2022-08-19T14:06:01;98862.00;;;32.00
68012;BMP180;54794;48.348;7.878;2022-08-19T14:08:29;98866.00;;;32.00
68012;BMP180;54794;48.348;7.878;2022-08-19T14:10:59;98863.00;;;32.00
68012;BMP180;54794;48.348;7.878;2022-08-19T14:13:32;98855.00;;;31.90
68012;BMP180;54794;48.348;7.878;2022-08-19T14:16:00;98856.00;;;31.90
68012;BMP180;54794;48.348;7.878;2022-08-19T14:18:27;98869.00;;;31.80
68012;BMP180;54794;48.348;7.878;2022-08-19T14:20:56;98876.00;;;31.80
68012;BMP180;54794;48.348;7.878;2022-08-19T14:23:24;98865.00;;;31.70
68012;BMP180;54794;48.348;7.878;2022-08-19T14:25:51;98874.00;;;31.60
68012;BMP180;54794;48.348;7.878;2022-08-19T14:28:18;98875.00;;;31.50
68012;BMP180;54794;48.348;7.878;2022-08-19T14:30:45;98880.00;;;31.40
68012;BMP180;54794;48.348;7.878;2022-08-19T14:33:12;98880.00;;;31.30
68012;BMP180;54794;48.348;7.878;2022-08-19T14:35:40;98873.00;;;31.20
68012;BMP180;54794;48.348;7.878;2022-08-19T14:38:18;98878.00;;;31.10
68012;BMP180;54794;48.348;7.878;2022-08-19T14:41:14;98881.00;;;31.00
68012;BMP180;54794;48.348;7.878;2022-08-19T14:43:44;98863.00;;;30.90
68012;BMP180;54794;48.348;7.878;2022-08-19T14:46:18;98855.00;;;30.90
68012;BMP180;54794;48.348;7.878;2022-08-19T14:48:48;98868.00;;;30.80